createdAt,value
2017-07-08T00:01:30.768Z,25.30
2017-07-08T00:03:58.698Z,25.30
2017-07-08T00:06:26.613Z,25.31
2017-07-08T00:08:54.529Z,25.31
2017-07-08T00:11:22.490Z,25.31
2017-07-08T00:13:50.405Z,25.32
2017-07-08T00:16:18.309Z,25.32
2017-07-08T00:18:46.234Z,25.32
2017-07-08T00:21:14.160Z,25.32
2017-07-08T00:23:42.119Z,25.32
2017-07-08T00:26:10.047Z,25.32
2017-07-08T00:28:37.961Z,25.33
2017-07-08T00:31:05.868Z,25.32
2017-07-08T00:33:35.540Z,25.33
2017-07-08T00:36:03.487Z,25.34
2017-07-08T00:38:31.399Z,25.34
2017-07-08T00:40:59.319Z,25.33
2017-07-08T00:43:27.269Z,25.33
2017-07-08T00:45:55.194Z,25.33
2017-07-08T00:48:23.148Z,25.34
2017-07-08T00:50:51.064Z,25.33
2017-07-08T00:53:19.002Z,25.34
2017-07-08T00:55:46.913Z,25.33
2017-07-08T00:58:14.832Z,25.34
2017-07-08T01:00:42.786Z,25.34
2017-07-08T01:03:10.721Z,25.34
2017-07-08T01:05:38.644Z,25.35
2017-07-08T01:08:06.565Z,25.34
2017-07-08T01:10:34.471Z,25.35
2017-07-08T01:13:02.400Z,25.35
2017-07-08T01:15:30.318Z,25.35
2017-07-08T01:17:58.226Z,25.34
2017-07-08T01:20:26.129Z,25.35
2017-07-08T01:22:54.068Z,25.35
2017-07-08T01:25:22.013Z,25.34
2017-07-08T01:27:49.930Z,25.35
2017-07-08T01:30:17.878Z,25.34
2017-07-08T01:32:45.818Z,25.35
2017-07-08T01:35:13.765Z,25.34
2017-07-08T01:37:41.721Z,25.34
2017-07-08T01:40:09.641Z,25.35
2017-07-08T01:42:37.557Z,25.34
2017-07-08T01:45:05.731Z,25.34
2017-07-08T01:47:33.660Z,25.34
2017-07-08T01:50:01.621Z,25.34
2017-07-08T01:52:29.535Z,25.33
2017-07-08T01:54:57.458Z,25.33
2017-07-08T01:57:25.392Z,25.33
2017-07-08T01:59:53.308Z,25.33
2017-07-08T02:02:21.245Z,25.33
2017-07-08T02:04:49.157Z,25.33
2017-07-08T02:07:17.078Z,25.33
2017-07-08T02:09:45.000Z,25.32
2017-07-08T02:12:12.919Z,25.32
2017-07-08T02:14:40.862Z,25.33
2017-07-08T02:17:08.771Z,25.32
2017-07-08T02:19:36.699Z,25.32
2017-07-08T02:22:04.621Z,25.31
2017-07-08T02:24:32.587Z,25.31
2017-07-08T02:27:00.547Z,25.31
2017-07-08T02:29:28.473Z,25.30
2017-07-08T02:31:56.388Z,25.30
2017-07-08T02:34:24.300Z,25.31
2017-07-08T02:36:52.227Z,25.30
2017-07-08T02:39:20.160Z,25.30
2017-07-08T02:41:48.085Z,25.30
2017-07-08T02:44:16.019Z,25.30
2017-07-08T02:46:43.954Z,25.30
2017-07-08T02:49:11.876Z,25.29
2017-07-08T02:51:39.809Z,25.29
2017-07-08T02:54:07.741Z,25.29
2017-07-08T02:56:35.647Z,25.29
2017-07-08T02:59:03.561Z,25.29
2017-07-08T03:01:31.485Z,25.29
2017-07-08T03:03:59.393Z,25.29
2017-07-08T03:06:27.306Z,25.29
2017-07-08T03:08:55.218Z,25.29
2017-07-08T03:11:23.170Z,25.29
2017-07-08T03:13:51.089Z,25.28
2017-07-08T03:16:19.010Z,25.28
2017-07-08T03:18:46.930Z,25.28
2017-07-08T03:21:14.860Z,25.28
2017-07-08T03:23:42.796Z,25.28
2017-07-08T03:26:10.701Z,25.28
2017-07-08T03:28:38.633Z,25.28
2017-07-08T03:31:06.555Z,25.27
2017-07-08T03:33:34.484Z,25.28
2017-07-08T03:36:02.430Z,25.27
2017-07-08T03:38:30.359Z,25.27
2017-07-08T03:40:58.402Z,25.26
2017-07-08T03:43:26.348Z,25.26
2017-07-08T03:45:54.269Z,25.26
2017-07-08T03:48:22.210Z,25.26
2017-07-08T03:50:50.142Z,25.25
2017-07-08T03:53:18.045Z,25.25
2017-07-08T03:55:45.949Z,25.24
2017-07-08T03:58:13.866Z,25.25
2017-07-08T04:00:41.800Z,25.25
2017-07-08T04:03:09.715Z,25.25
2017-07-08T04:05:37.631Z,25.25
2017-07-08T04:08:05.536Z,25.25
2017-07-08T04:10:33.442Z,25.24
2017-07-08T04:13:01.409Z,25.25
2017-07-08T04:15:29.337Z,25.25
2017-07-08T04:17:57.252Z,25.24
2017-07-08T04:20:25.181Z,25.23
2017-07-08T04:22:53.084Z,25.23
2017-07-08T04:25:21.013Z,25.23
2017-07-08T04:27:48.925Z,25.23
2017-07-08T04:30:16.853Z,25.22
2017-07-08T04:32:44.781Z,25.22
2017-07-08T04:35:12.733Z,25.18
2017-07-08T04:37:40.705Z,25.22
2017-07-08T04:40:08.629Z,25.21
2017-07-08T04:42:36.528Z,25.21
2017-07-08T04:45:04.435Z,25.21
2017-07-08T04:47:32.375Z,25.21
2017-07-08T04:50:00.313Z,25.21
2017-07-08T04:52:28.216Z,25.21
2017-07-08T04:54:56.129Z,25.21
2017-07-08T04:57:24.036Z,25.21
2017-07-08T04:59:51.965Z,25.20
2017-07-08T05:02:19.911Z,25.21
2017-07-08T05:04:47.932Z,25.21
2017-07-08T05:07:15.844Z,25.21
2017-07-08T05:09:43.780Z,25.22
2017-07-08T05:12:11.734Z,25.22
2017-07-08T05:14:39.709Z,25.22
2017-07-08T05:17:07.669Z,25.22
2017-07-08T05:19:35.595Z,25.22
2017-07-08T05:22:03.524Z,25.22
2017-07-08T05:24:31.449Z,25.23
2017-07-08T05:26:59.509Z,25.23
2017-07-08T05:29:27.844Z,25.22
2017-07-08T05:31:56.224Z,25.23
2017-07-08T05:34:24.201Z,25.22
2017-07-08T05:36:52.136Z,25.23
2017-07-08T05:39:20.102Z,25.23
2017-07-08T05:41:48.040Z,25.23
2017-07-08T05:44:15.998Z,25.23
2017-07-08T05:46:43.926Z,25.22
2017-07-08T05:49:11.868Z,25.22
2017-07-08T05:51:39.858Z,25.22
2017-07-08T05:54:07.795Z,25.22
2017-07-08T05:56:35.753Z,25.21
2017-07-08T05:59:03.856Z,25.21
2017-07-08T06:01:32.042Z,25.21
2017-07-08T06:04:00.017Z,25.22
2017-07-08T06:06:27.990Z,25.23
2017-07-08T06:08:55.935Z,25.24
2017-07-08T06:11:23.913Z,25.24
2017-07-08T06:13:51.854Z,25.24
2017-07-08T06:16:19.773Z,25.16
2017-07-08T06:18:47.711Z,25.09
2017-07-08T06:21:15.653Z,24.88
2017-07-08T06:23:43.874Z,24.80
2017-07-08T06:26:11.914Z,24.61
2017-07-08T06:28:40.492Z,24.53
2017-07-08T06:31:08.411Z,24.50
2017-07-08T06:33:36.352Z,24.29
2017-07-08T06:36:04.309Z,24.30
2017-07-08T06:38:32.303Z,24.16
2017-07-08T06:41:00.266Z,24.12
2017-07-08T06:43:28.194Z,24.06
2017-07-08T06:45:56.138Z,23.89
2017-07-08T06:48:24.102Z,24.00
2017-07-08T06:50:52.032Z,23.98
2017-07-08T06:53:19.979Z,24.11
2017-07-08T06:55:47.906Z,24.20
2017-07-08T06:58:15.834Z,24.10
2017-07-08T07:00:43.787Z,24.11
2017-07-08T07:03:11.715Z,24.23
2017-07-08T07:05:39.645Z,24.23
2017-07-08T07:08:07.634Z,24.26
2017-07-08T07:10:35.775Z,24.25
2017-07-08T07:13:05.093Z,24.21
2017-07-08T07:15:33.099Z,24.27
2017-07-08T07:18:01.027Z,24.31
2017-07-08T07:20:28.971Z,24.31
2017-07-08T07:22:56.941Z,24.32
2017-07-08T07:25:24.889Z,24.36
2017-07-08T07:27:52.826Z,24.45
2017-07-08T07:30:20.787Z,24.47
2017-07-08T07:32:48.717Z,24.50
2017-07-08T07:35:16.763Z,24.48
2017-07-08T07:37:44.745Z,24.44
2017-07-08T07:40:12.674Z,24.47
2017-07-08T07:42:40.595Z,24.47
2017-07-08T07:45:08.517Z,24.50
2017-07-08T07:47:36.453Z,24.48
2017-07-08T07:50:04.419Z,24.55
2017-07-08T07:52:32.366Z,24.59
2017-07-08T07:55:00.311Z,24.64
2017-07-08T07:57:28.265Z,24.71
2017-07-08T07:59:56.200Z,24.77
2017-07-08T08:02:24.128Z,24.81
2017-07-08T08:04:52.090Z,24.87
2017-07-08T08:07:20.017Z,24.94
2017-07-08T08:09:47.947Z,24.99
2017-07-08T08:12:15.894Z,25.01
2017-07-08T08:14:43.821Z,25.05
2017-07-08T08:17:11.800Z,25.08
2017-07-08T08:19:39.726Z,25.11
2017-07-08T08:22:07.673Z,25.13
2017-07-08T08:24:35.634Z,25.16
2017-07-08T08:27:03.554Z,25.17
2017-07-08T08:29:31.498Z,25.19
2017-07-08T08:31:59.439Z,25.21
2017-07-08T08:34:27.369Z,25.23
2017-07-08T08:36:55.547Z,25.20
2017-07-08T08:39:23.665Z,25.23
2017-07-08T08:41:51.783Z,25.25
2017-07-08T08:44:19.735Z,25.28
2017-07-08T08:46:47.841Z,25.31
2017-07-08T08:49:15.776Z,25.35
2017-07-08T08:51:43.715Z,25.35
2017-07-08T08:54:11.629Z,25.34
2017-07-08T08:56:39.557Z,25.31
2017-07-08T08:59:07.502Z,25.31
2017-07-08T09:01:35.450Z,25.30
2017-07-08T09:04:03.361Z,25.31
2017-07-08T09:06:31.298Z,25.30
2017-07-08T09:08:59.407Z,25.29
2017-07-08T09:11:27.515Z,25.30
2017-07-08T09:13:55.526Z,25.32
2017-07-08T09:16:23.446Z,25.32
2017-07-08T09:18:51.395Z,25.31
2017-07-08T09:21:19.325Z,25.32
2017-07-08T09:23:47.265Z,25.32
2017-07-08T09:26:15.180Z,25.34
2017-07-08T09:28:43.229Z,25.35
2017-07-08T09:31:11.185Z,25.36
2017-07-08T09:33:39.130Z,25.36
2017-07-08T09:36:07.125Z,25.37
2017-07-08T09:38:35.050Z,25.39
2017-07-08T09:41:02.969Z,25.37
2017-07-08T09:43:30.900Z,25.39
2017-07-08T09:45:58.819Z,25.42
2017-07-08T09:48:26.751Z,25.43
2017-07-08T09:50:54.685Z,25.45
2017-07-08T09:53:22.649Z,25.46
2017-07-08T09:55:50.757Z,25.44
2017-07-08T09:58:18.677Z,25.49
2017-07-08T10:00:46.666Z,25.50
2017-07-08T10:03:15.071Z,25.52
2017-07-08T10:05:42.990Z,25.53
2017-07-08T10:08:10.998Z,25.54
2017-07-08T10:10:38.917Z,25.55
2017-07-08T10:13:06.842Z,25.55
2017-07-08T10:15:34.793Z,25.54
2017-07-08T10:18:02.730Z,25.52
2017-07-08T10:20:30.666Z,25.55
2017-07-08T10:22:58.624Z,25.56
2017-07-08T10:25:26.607Z,25.57
2017-07-08T10:27:54.530Z,25.56
2017-07-08T10:30:22.450Z,25.56
2017-07-08T10:32:50.386Z,25.54
2017-07-08T10:35:18.319Z,25.55
2017-07-08T10:37:46.310Z,25.56
2017-07-08T10:40:14.267Z,25.56
2017-07-08T10:42:42.218Z,25.56
2017-07-08T10:45:10.147Z,25.56
2017-07-08T10:47:38.083Z,25.58
2017-07-08T10:50:06.054Z,25.57
2017-07-08T10:52:34.021Z,25.57
2017-07-08T10:55:01.958Z,25.58
2017-07-08T10:57:29.905Z,25.57
2017-07-08T10:59:57.826Z,25.57
2017-07-08T11:02:25.798Z,25.53
2017-07-08T11:04:53.746Z,25.54
2017-07-08T11:07:21.687Z,25.53
2017-07-08T11:09:49.606Z,25.55
2017-07-08T11:12:17.598Z,25.58
2017-07-08T11:14:45.577Z,25.60
2017-07-08T11:17:13.490Z,25.58
2017-07-08T11:19:41.428Z,25.59
2017-07-08T11:22:09.396Z,25.62
2017-07-08T11:24:37.526Z,25.64
2017-07-08T11:27:05.494Z,25.65
2017-07-08T11:29:34.544Z,25.68
2017-07-08T11:32:02.490Z,25.73
2017-07-08T11:34:30.562Z,25.72
2017-07-08T11:36:58.490Z,25.73
2017-07-08T11:39:26.527Z,25.78
2017-07-08T11:41:54.466Z,25.80
2017-07-08T11:44:23.601Z,25.81
2017-07-08T11:46:51.524Z,25.85
2017-07-08T11:49:19.478Z,25.88
2017-07-08T11:51:47.408Z,25.90
2017-07-08T11:54:15.392Z,25.91
2017-07-08T11:56:43.387Z,25.90
2017-07-08T11:59:11.408Z,25.95
2017-07-08T12:01:39.362Z,25.97
2017-07-08T12:04:07.298Z,25.97
2017-07-08T12:06:35.254Z,25.89
2017-07-08T12:09:03.227Z,25.90
2017-07-08T12:11:31.171Z,25.81
2017-07-08T12:13:59.087Z,25.78
2017-07-08T12:16:27.017Z,25.68
2017-07-08T12:18:54.952Z,25.69
2017-07-08T12:21:22.889Z,25.75
2017-07-08T12:23:50.856Z,25.83
2017-07-08T12:26:18.789Z,25.87
2017-07-08T12:28:47.533Z,25.93
2017-07-08T12:31:15.468Z,25.93
2017-07-08T12:33:44.230Z,25.93
2017-07-08T12:36:12.244Z,25.97
2017-07-08T12:38:40.197Z,25.99
2017-07-08T12:41:08.259Z,25.99
2017-07-08T12:43:36.211Z,26.01
2017-07-08T12:46:04.154Z,26.06
2017-07-08T12:48:32.115Z,26.07
2017-07-08T12:51:00.563Z,26.06
2017-07-08T12:53:28.532Z,26.04
2017-07-08T12:55:56.499Z,26.03
2017-07-08T12:58:24.413Z,26.03
2017-07-08T13:00:52.357Z,26.03
2017-07-08T13:03:20.293Z,26.05
2017-07-08T13:05:48.282Z,26.05
2017-07-08T13:08:16.210Z,26.08
2017-07-08T13:10:44.188Z,26.09
2017-07-08T13:13:12.174Z,26.14
2017-07-08T13:15:40.102Z,26.19
2017-07-08T13:18:08.059Z,26.19
2017-07-08T13:20:36.007Z,26.16
2017-07-08T13:23:03.961Z,26.20
2017-07-08T13:25:33.910Z,26.19
2017-07-08T13:28:01.872Z,26.18
2017-07-08T13:30:29.850Z,26.17
2017-07-08T13:32:59.601Z,26.18
2017-07-08T13:35:27.566Z,26.17
2017-07-08T13:37:55.559Z,26.19
2017-07-08T13:40:23.567Z,26.19
2017-07-08T13:42:51.537Z,26.20
2017-07-08T13:45:19.505Z,26.22
2017-07-08T13:47:47.444Z,26.21
2017-07-08T13:50:15.411Z,26.22
2017-07-08T13:52:43.333Z,26.28
2017-07-08T13:55:11.286Z,26.32
2017-07-08T13:57:39.234Z,26.27
2017-07-08T14:00:07.165Z,26.24
2017-07-08T14:02:35.134Z,26.26
2017-07-08T14:05:03.066Z,26.26
2017-07-08T14:07:30.994Z,26.27
2017-07-08T14:09:58.980Z,26.34
2017-07-08T14:12:27.282Z,26.36
2017-07-08T14:14:55.247Z,26.39
2017-07-08T14:17:23.181Z,26.43
2017-07-08T14:19:51.117Z,26.41
2017-07-08T14:22:19.041Z,26.37
2017-07-08T14:24:46.966Z,26.37
2017-07-08T14:27:14.957Z,26.42
2017-07-08T14:29:42.910Z,26.36
2017-07-08T14:32:10.874Z,26.37
2017-07-08T14:34:38.842Z,26.45
2017-07-08T14:37:06.772Z,26.46
2017-07-08T14:39:34.746Z,26.45
2017-07-08T14:42:02.669Z,26.48
2017-07-08T14:44:30.632Z,26.51
2017-07-08T14:46:58.574Z,26.54
2017-07-08T14:49:26.902Z,26.55
2017-07-08T14:51:54.870Z,26.58
2017-07-08T14:54:22.936Z,26.60
2017-07-08T14:56:50.877Z,26.60
2017-07-08T14:59:18.793Z,26.50
2017-07-08T15:01:46.718Z,26.48
2017-07-08T15:04:14.705Z,26.48
2017-07-08T15:06:42.641Z,26.45
2017-07-08T15:09:10.572Z,26.47
2017-07-08T15:11:38.507Z,26.45
2017-07-08T15:14:06.433Z,26.36
2017-07-08T15:16:34.417Z,26.21
2017-07-08T15:19:03.998Z,26.27
2017-07-08T15:21:31.928Z,26.30
2017-07-08T15:23:59.878Z,26.37
2017-07-08T15:26:27.819Z,26.38
2017-07-08T15:28:55.765Z,26.44
2017-07-08T15:31:23.702Z,26.43
2017-07-08T15:33:51.622Z,26.53
2017-07-08T15:36:19.674Z,26.49
2017-07-08T15:38:47.607Z,26.47
2017-07-08T15:41:15.562Z,26.56
2017-07-08T15:43:43.515Z,26.59
2017-07-08T15:46:11.430Z,26.52
2017-07-08T15:48:39.375Z,26.51
2017-07-08T15:51:07.310Z,26.49
2017-07-08T15:53:35.261Z,26.48
2017-07-08T15:56:03.252Z,26.44
2017-07-08T15:58:31.170Z,26.41
2017-07-08T16:00:59.091Z,26.46
2017-07-08T16:03:27.018Z,26.32
2017-07-08T16:05:55.002Z,26.39
2017-07-08T16:08:22.925Z,26.39
2017-07-08T16:10:50.863Z,26.32
2017-07-08T16:13:18.794Z,26.31
2017-07-08T16:15:46.763Z,26.35
2017-07-08T16:18:14.708Z,26.37
2017-07-08T16:20:42.626Z,26.33
2017-07-08T16:23:10.583Z,26.37
2017-07-08T16:25:38.506Z,26.25
2017-07-08T16:28:06.453Z,26.27
2017-07-08T16:30:34.399Z,26.06
2017-07-08T16:33:02.311Z,26.01
2017-07-08T16:35:30.265Z,26.02
2017-07-08T16:37:58.184Z,26.03
2017-07-08T16:40:26.115Z,26.01
2017-07-08T16:42:54.047Z,26.10
2017-07-08T16:45:21.987Z,25.97
2017-07-08T16:47:49.937Z,26.04
2017-07-08T16:50:17.893Z,25.86
2017-07-08T16:52:45.821Z,25.92
2017-07-08T16:55:31.340Z,25.92
2017-07-08T16:57:59.261Z,25.90
2017-07-08T17:00:27.219Z,25.81
2017-07-08T17:02:55.175Z,25.84
2017-07-08T17:05:23.101Z,25.85
2017-07-08T17:07:51.021Z,25.83
2017-07-08T17:10:18.936Z,25.72
2017-07-08T17:12:46.883Z,25.74
2017-07-08T17:15:14.831Z,25.72
2017-07-08T17:17:42.767Z,25.79
2017-07-08T17:20:10.734Z,25.83
2017-07-08T17:22:38.652Z,25.83
2017-07-08T17:25:06.615Z,25.77
2017-07-08T17:27:34.547Z,25.80
2017-07-08T17:30:02.491Z,25.74
2017-07-08T17:32:30.455Z,25.77
2017-07-08T17:34:58.391Z,25.90
2017-07-08T17:37:26.366Z,25.95
2017-07-08T17:39:54.328Z,25.91
2017-07-08T17:42:22.257Z,25.95
2017-07-08T17:44:50.206Z,25.97
2017-07-08T17:47:18.130Z,26.05
2017-07-08T17:49:46.096Z,26.02
2017-07-08T17:52:14.013Z,26.06
2017-07-08T17:54:41.948Z,26.03
2017-07-08T17:57:09.882Z,26.07
2017-07-08T17:59:38.030Z,26.08
2017-07-08T18:02:06.004Z,26.04
2017-07-08T18:04:33.953Z,26.01
2017-07-08T18:07:02.262Z,25.99
2017-07-08T18:09:30.196Z,25.99
2017-07-08T18:11:58.164Z,25.95
2017-07-08T18:14:26.118Z,25.93
2017-07-08T18:16:54.062Z,25.89
2017-07-08T18:19:21.997Z,25.90
2017-07-08T18:21:49.940Z,25.87
2017-07-08T18:24:17.869Z,25.77
2017-07-08T18:26:45.847Z,25.80
2017-07-08T18:29:13.785Z,25.76
2017-07-08T18:31:41.736Z,25.79
2017-07-08T18:34:09.668Z,25.83
2017-07-08T18:36:37.658Z,25.78
2017-07-08T18:39:05.612Z,25.77
2017-07-08T18:41:33.558Z,25.74
2017-07-08T18:44:01.478Z,25.72
2017-07-08T18:46:29.468Z,25.71
2017-07-08T18:48:57.394Z,25.74
2017-07-08T18:51:25.369Z,25.70
2017-07-08T18:53:53.339Z,25.61
2017-07-08T18:56:21.262Z,25.64
2017-07-08T18:58:49.244Z,25.51
2017-07-08T19:01:17.189Z,25.56
2017-07-08T19:03:45.187Z,25.54
2017-07-08T19:06:13.130Z,25.53
2017-07-08T19:08:41.082Z,25.52
2017-07-08T19:11:09.030Z,25.53
2017-07-08T19:13:36.983Z,25.51
2017-07-08T19:16:04.955Z,25.47
2017-07-08T19:18:32.941Z,25.46
2017-07-08T19:21:00.863Z,25.46
2017-07-08T19:23:28.828Z,25.42
2017-07-08T19:25:56.759Z,25.38
2017-07-08T19:28:24.699Z,25.35
2017-07-08T19:30:52.630Z,25.40
2017-07-08T19:33:20.566Z,25.38
2017-07-08T19:35:48.498Z,25.37
2017-07-08T19:38:16.426Z,25.34
2017-07-08T19:40:44.391Z,25.30
2017-07-08T19:43:12.326Z,25.27
2017-07-08T19:45:40.268Z,25.21
2017-07-08T19:48:08.208Z,25.16
2017-07-08T19:50:36.174Z,25.12
2017-07-08T19:53:04.139Z,25.05
2017-07-08T19:55:32.070Z,25.06
2017-07-08T19:58:00.069Z,25.13
2017-07-08T20:00:28.020Z,25.13
2017-07-08T20:02:55.947Z,25.14
2017-07-08T20:05:23.882Z,25.14
2017-07-08T20:07:51.838Z,25.15
2017-07-08T20:10:19.766Z,25.18
2017-07-08T20:12:47.708Z,25.16
2017-07-08T20:15:15.635Z,25.11
2017-07-08T20:17:43.583Z,25.08
2017-07-08T20:20:11.930Z,25.03
2017-07-08T20:22:39.878Z,25.07
2017-07-08T20:25:07.810Z,25.05
2017-07-08T20:27:35.752Z,25.04
2017-07-08T20:30:03.697Z,25.08
2017-07-08T20:32:31.642Z,25.17
2017-07-08T20:34:59.600Z,25.21
2017-07-08T20:37:27.788Z,25.26
2017-07-08T20:39:55.717Z,25.29
2017-07-08T20:42:23.646Z,25.30
2017-07-08T20:44:51.595Z,25.34
2017-07-08T20:47:19.561Z,25.35
2017-07-08T20:49:47.473Z,25.38
2017-07-08T20:52:15.403Z,25.31
2017-07-08T20:54:43.336Z,25.33
2017-07-08T20:57:11.253Z,25.36
2017-07-08T20:59:39.249Z,25.38
2017-07-08T21:02:07.166Z,25.39
2017-07-08T21:04:35.112Z,25.41
2017-07-08T21:07:03.041Z,25.42
2017-07-08T21:09:30.980Z,25.42
2017-07-08T21:11:58.943Z,25.43
2017-07-08T21:14:26.886Z,25.43
2017-07-08T21:16:54.798Z,25.44
2017-07-08T21:19:22.742Z,25.44
2017-07-08T21:21:50.673Z,25.45
2017-07-08T21:24:18.645Z,25.45
2017-07-08T21:26:46.574Z,25.45
2017-07-08T21:29:14.510Z,25.46
2017-07-08T21:31:42.443Z,25.46
2017-07-08T21:34:10.608Z,25.46
2017-07-08T21:36:38.565Z,25.46
2017-07-08T21:39:06.495Z,25.45
2017-07-08T21:41:34.448Z,25.46
2017-07-08T21:44:02.365Z,25.46
2017-07-08T21:46:30.297Z,25.46
2017-07-08T21:48:58.234Z,25.47
2017-07-08T21:51:26.158Z,25.45
2017-07-08T21:53:54.106Z,25.46
2017-07-08T21:56:22.070Z,25.46
2017-07-08T21:58:50.215Z,25.45
2017-07-08T22:01:18.186Z,25.46
2017-07-08T22:03:46.113Z,25.45
2017-07-08T22:06:14.047Z,25.45
2017-07-08T22:08:41.985Z,25.45
2017-07-08T22:11:09.907Z,25.45
2017-07-08T22:13:37.871Z,25.44
2017-07-08T22:16:05.795Z,25.44
2017-07-08T22:18:33.742Z,25.43
2017-07-08T22:21:01.674Z,25.42
2017-07-08T22:23:29.647Z,25.43
2017-07-08T22:25:57.593Z,25.42
2017-07-08T22:28:25.550Z,25.42
2017-07-08T22:30:53.486Z,25.41
2017-07-08T22:33:21.425Z,25.41
2017-07-08T22:35:49.354Z,25.40
2017-07-08T22:38:17.307Z,25.40
2017-07-08T22:40:45.258Z,25.39
2017-07-08T22:43:13.191Z,25.39
2017-07-08T22:45:41.119Z,25.39
2017-07-08T22:48:09.047Z,25.39
2017-07-08T22:50:37.003Z,25.38
2017-07-08T22:53:04.928Z,25.38
2017-07-08T22:55:32.906Z,25.38
2017-07-08T22:58:00.842Z,25.37
2017-07-08T23:00:28.974Z,25.37
2017-07-08T23:02:56.970Z,25.37
2017-07-08T23:05:24.902Z,25.35
2017-07-08T23:07:52.829Z,25.35
2017-07-08T23:10:20.771Z,25.36
2017-07-08T23:12:48.715Z,25.35
2017-07-08T23:15:16.667Z,25.35
2017-07-08T23:17:44.599Z,25.35
2017-07-08T23:20:12.522Z,25.34
2017-07-08T23:22:40.456Z,25.32
2017-07-08T23:25:08.921Z,25.33
2017-07-08T23:27:36.864Z,25.32
2017-07-08T23:30:04.788Z,25.32
2017-07-08T23:32:32.738Z,25.31
2017-07-08T23:35:00.691Z,25.31
2017-07-08T23:37:28.611Z,25.31
2017-07-08T23:39:56.546Z,25.31
2017-07-08T23:42:24.461Z,25.30
2017-07-08T23:44:52.399Z,25.30
2017-07-08T23:47:20.331Z,25.30
2017-07-08T23:49:48.258Z,25.29
2017-07-08T23:52:16.217Z,25.29
2017-07-08T23:54:44.165Z,25.28
2017-07-08T23:57:12.113Z,25.28
2017-07-08T23:59:40.049Z,25.28
